createdAt,value
2022-09-13T00:01:55.078Z,17.70
2022-09-13T00:04:22.202Z,17.70
2022-09-13T00:06:49.163Z,17.70
2022-09-13T00:09:16.152Z,17.70
2022-09-13T00:11:43.100Z,17.60
2022-09-13T00:14:10.594Z,17.60
2022-09-13T00:16:37.729Z,17.60
2022-09-13T00:19:05.648Z,17.60
2022-09-13T00:21:32.977Z,17.60
2022-09-13T00:24:00.262Z,17.60
2022-09-13T00:26:28.591Z,17.60
2022-09-13T00:28:58.720Z,17.60
2022-09-13T00:31:28.211Z,17.60
2022-09-13T00:33:55.884Z,17.60
2022-09-13T00:36:22.903Z,17.60
2022-09-13T00:38:49.993Z,17.50
2022-09-13T00:41:19.028Z,17.50
2022-09-13T00:43:49.385Z,17.50
2022-09-13T00:46:44.802Z,17.50
2022-09-13T00:49:19.205Z,17.50
2022-09-13T00:51:50.402Z,17.50
2022-09-13T00:54:19.702Z,17.50
2022-09-13T00:56:52.967Z,17.50
2022-09-13T00:59:27.978Z,17.50
2022-09-13T01:01:57.647Z,17.50
2022-09-13T01:04:28.204Z,17.50
2022-09-13T01:07:00.004Z,17.40
2022-09-13T01:09:28.939Z,17.50
2022-09-13T01:12:04.694Z,17.40
2022-09-13T01:14:33.341Z,17.40
2022-09-13T01:17:00.903Z,17.40
2022-09-13T01:19:28.380Z,17.40
2022-09-13T01:22:26.014Z,17.40
2022-09-13T01:25:18.610Z,17.40
2022-09-13T01:27:57.074Z,17.40
2022-09-13T01:30:27.248Z,17.40
2022-09-13T01:33:01.809Z,17.40
2022-09-13T01:35:41.878Z,17.40
2022-09-13T01:38:41.875Z,17.40
2022-09-13T01:41:22.463Z,17.40
2022-09-13T01:44:04.163Z,17.30
2022-09-13T01:46:59.967Z,17.30
2022-09-13T01:49:36.134Z,17.30
2022-09-13T01:52:23.958Z,17.30
2022-09-13T01:54:59.995Z,17.30
2022-09-13T01:57:38.473Z,17.30
2022-09-13T02:00:10.734Z,17.30
2022-09-13T02:02:57.543Z,17.30
2022-09-13T02:05:47.835Z,17.30
2022-09-13T02:08:46.062Z,17.30
2022-09-13T02:11:15.419Z,17.30
2022-09-13T02:14:06.308Z,17.30
2022-09-13T02:16:43.004Z,17.30
2022-09-13T02:19:38.064Z,17.30
2022-09-13T02:22:08.992Z,17.40
2022-09-13T02:24:55.879Z,17.40
2022-09-13T02:27:27.537Z,17.40
2022-09-13T02:30:00.831Z,17.30
2022-09-13T02:32:54.628Z,17.40
2022-09-13T02:35:38.889Z,17.40
2022-09-13T02:38:22.538Z,17.30
2022-09-13T02:41:27.649Z,17.30
2022-09-13T02:44:12.081Z,17.30
2022-09-13T02:46:58.030Z,17.30
2022-09-13T02:50:02.108Z,17.30
2022-09-13T02:52:39.894Z,17.30
2022-09-13T02:55:13.741Z,17.20
2022-09-13T02:58:11.419Z,17.30
2022-09-13T03:00:39.167Z,17.20
2022-09-13T03:03:09.938Z,17.30
2022-09-13T03:05:37.392Z,17.30
2022-09-13T03:08:05.876Z,17.30
2022-09-13T03:10:52.281Z,17.30
2022-09-13T03:13:33.173Z,17.30
2022-09-13T03:16:08.594Z,17.30
2022-09-13T03:18:57.791Z,17.30
2022-09-13T03:21:55.501Z,17.30
2022-09-13T03:24:29.884Z,17.30
2022-09-13T03:27:34.723Z,17.30
2022-09-13T03:30:10.825Z,17.30
2022-09-13T03:32:57.661Z,17.30
2022-09-13T03:35:49.992Z,17.40
2022-09-13T03:38:21.823Z,17.40
2022-09-13T03:40:56.853Z,17.40
2022-09-13T03:43:42.043Z,17.50
2022-09-13T03:46:32.483Z,17.50
2022-09-13T03:49:23.438Z,17.50
2022-09-13T03:51:53.296Z,17.60
2022-09-13T03:54:24.211Z,17.60
2022-09-13T03:57:09.974Z,17.60
2022-09-13T03:59:40.545Z,17.60
2022-09-13T04:02:11.930Z,17.60
2022-09-13T04:04:40.431Z,17.70
2022-09-13T04:07:08.402Z,17.70
2022-09-13T04:09:35.487Z,17.70
2022-09-13T04:12:03.130Z,17.60
2022-09-13T04:14:31.063Z,17.60
2022-09-13T04:16:58.907Z,17.60
2022-09-13T04:19:26.451Z,17.60
2022-09-13T04:21:55.578Z,17.60
2022-09-13T04:24:26.174Z,17.70
2022-09-13T04:26:56.527Z,17.60
2022-09-13T04:29:26.048Z,17.70
2022-09-13T04:31:54.374Z,17.60
2022-09-13T04:34:25.160Z,17.60
2022-09-13T04:36:53.449Z,17.60
2022-09-13T04:39:21.689Z,17.60
2022-09-13T04:41:51.547Z,17.60
2022-09-13T04:44:18.963Z,17.60
2022-09-13T04:46:49.714Z,17.60
2022-09-13T04:49:18.096Z,17.60
2022-09-13T04:51:45.129Z,17.60
2022-09-13T04:54:15.628Z,17.60
2022-09-13T04:56:45.650Z,17.60
2022-09-13T04:59:13.850Z,17.60
2022-09-13T05:01:42.200Z,17.60
2022-09-13T05:04:10.386Z,17.60
2022-09-13T05:07:13.185Z,17.60
2022-09-13T05:09:40.734Z,17.60
2022-09-13T05:12:07.807Z,17.60
2022-09-13T05:14:35.267Z,17.70
2022-09-13T05:17:02.197Z,17.70
2022-09-13T05:19:29.714Z,17.70
2022-09-13T05:21:57.312Z,17.70
2022-09-13T05:24:24.354Z,17.80
2022-09-13T05:26:52.086Z,17.80
2022-09-13T05:29:19.438Z,17.90
2022-09-13T05:31:47.304Z,18.00
2022-09-13T05:34:20.789Z,18.00
2022-09-13T05:36:54.145Z,18.10
2022-09-13T05:39:43.715Z,18.20
2022-09-13T05:42:09.534Z,18.20
2022-09-13T05:44:37.184Z,18.30
2022-09-13T05:47:04.513Z,18.40
2022-09-13T05:49:31.590Z,18.40
2022-09-13T05:51:58.560Z,18.50
2022-09-13T05:54:26.010Z,18.40
2022-09-13T05:56:57.583Z,18.50
2022-09-13T05:59:24.590Z,18.50
2022-09-13T06:01:51.744Z,18.50
2022-09-13T06:04:18.759Z,18.60
2022-09-13T06:06:45.847Z,18.60
2022-09-13T06:09:13.305Z,18.70
2022-09-13T06:11:40.815Z,18.80
2022-09-13T06:14:08.856Z,18.90
2022-09-13T06:16:36.912Z,19.10
2022-09-13T06:19:04.111Z,19.20
2022-09-13T06:21:31.156Z,19.30
2022-09-13T06:23:58.125Z,19.40
2022-09-13T06:26:27.859Z,19.50
2022-09-13T06:28:58.199Z,19.60
2022-09-13T06:31:28.038Z,19.60
2022-09-13T06:33:57.954Z,19.60
2022-09-13T06:36:25.043Z,19.70
2022-09-13T06:38:52.170Z,19.70
2022-09-13T06:41:23.957Z,19.80
2022-09-13T06:43:56.228Z,19.80
2022-09-13T06:46:25.572Z,19.80
2022-09-13T06:48:53.412Z,19.90
2022-09-13T06:51:23.999Z,19.90
2022-09-13T06:53:52.393Z,20.00
2022-09-13T06:56:24.977Z,20.00
2022-09-13T06:58:55.391Z,20.10
2022-09-13T07:01:28.433Z,20.10
2022-09-13T07:04:02.379Z,20.10
2022-09-13T07:06:38.986Z,20.20
2022-09-13T07:09:09.212Z,20.20
2022-09-13T07:11:39.220Z,20.30
2022-09-13T07:14:07.486Z,20.30
2022-09-13T07:16:38.656Z,20.30
2022-09-13T07:19:14.229Z,20.30
2022-09-13T07:21:43.093Z,20.30
2022-09-13T07:24:11.664Z,20.30
2022-09-13T07:26:39.354Z,20.30
2022-09-13T07:29:10.494Z,20.30
2022-09-13T07:31:40.455Z,20.30
2022-09-13T07:34:11.995Z,20.20
2022-09-13T07:36:39.593Z,20.20
2022-09-13T07:39:10.921Z,20.20
2022-09-13T07:41:41.952Z,20.20
2022-09-13T07:44:11.972Z,20.20
2022-09-13T07:46:41.708Z,20.20
2022-09-13T07:49:09.287Z,20.20
2022-09-13T07:51:39.719Z,20.20
2022-09-13T07:54:11.810Z,20.20
2022-09-13T07:56:41.344Z,20.10
2022-09-13T07:59:13.130Z,20.10
2022-09-13T08:01:45.867Z,20.10
2022-09-13T08:04:17.849Z,20.10
2022-09-13T08:06:47.869Z,20.00
2022-09-13T08:09:16.023Z,20.00
2022-09-13T08:11:49.091Z,20.00
2022-09-13T08:14:19.451Z,20.00
2022-09-13T08:16:46.637Z,20.00
2022-09-13T08:19:16.891Z,20.00
2022-09-13T08:21:45.146Z,20.10
2022-09-13T08:24:21.963Z,20.10
2022-09-13T08:26:49.723Z,20.20
2022-09-13T08:29:17.064Z,20.20
2022-09-13T08:31:44.976Z,20.20
2022-09-13T08:34:14.764Z,20.20
2022-09-13T08:36:42.314Z,20.30
2022-09-13T08:39:10.504Z,20.40
2022-09-13T08:41:42.225Z,20.50
2022-09-13T08:44:18.815Z,20.60
2022-09-13T08:46:46.961Z,20.70
2022-09-13T08:49:25.914Z,20.80
2022-09-13T08:52:05.511Z,20.80
2022-09-13T08:54:33.301Z,20.90
2022-09-13T08:57:15.939Z,21.00
2022-09-13T09:00:15.199Z,21.00
2022-09-13T09:03:12.670Z,21.10
2022-09-13T09:05:48.409Z,21.10
2022-09-13T09:08:39.221Z,21.10
2022-09-13T09:11:44.837Z,21.20
2022-09-13T09:14:15.621Z,21.20
2022-09-13T09:16:58.332Z,21.30
2022-09-13T09:19:34.308Z,21.30
2022-09-13T09:22:06.032Z,21.40
2022-09-13T09:24:37.520Z,21.50
2022-09-13T09:27:15.177Z,21.60
2022-09-13T09:29:44.663Z,21.70
2022-09-13T09:32:20.680Z,21.80
2022-09-13T09:35:20.458Z,21.90
2022-09-13T09:38:08.245Z,21.90
2022-09-13T09:40:38.319Z,22.00
2022-09-13T09:43:33.565Z,22.10
2022-09-13T09:46:03.814Z,22.20
2022-09-13T09:48:46.134Z,22.30
2022-09-13T09:51:16.023Z,22.40
2022-09-13T09:53:48.066Z,22.50
2022-09-13T09:56:26.313Z,22.70
2022-09-13T09:58:56.752Z,22.80
2022-09-13T10:01:32.476Z,22.90
2022-09-13T10:04:19.079Z,23.00
2022-09-13T10:06:47.112Z,23.20
2022-09-13T10:09:14.024Z,23.30
2022-09-13T10:11:43.981Z,23.40
2022-09-13T10:14:35.120Z,23.40
2022-09-13T10:17:07.151Z,23.50
2022-09-13T10:19:34.288Z,23.50
2022-09-13T10:22:04.325Z,23.60
2022-09-13T10:24:31.502Z,23.60
2022-09-13T10:27:00.021Z,23.60
2022-09-13T10:29:29.146Z,23.60
2022-09-13T10:32:03.742Z,23.70
2022-09-13T10:34:34.688Z,23.70
2022-09-13T10:37:04.777Z,23.80
2022-09-13T10:39:36.207Z,24.00
2022-09-13T10:42:07.136Z,24.00
2022-09-13T10:44:40.146Z,24.20
2022-09-13T10:47:18.908Z,24.30
2022-09-13T10:49:53.005Z,24.40
2022-09-13T10:52:43.129Z,24.60
2022-09-13T10:55:19.362Z,24.70
2022-09-13T10:57:52.531Z,24.80
2022-09-13T11:00:31.342Z,24.90
2022-09-13T11:03:21.484Z,25.00
2022-09-13T11:06:09.569Z,25.20
2022-09-13T11:08:40.991Z,25.20
2022-09-13T11:11:29.431Z,25.30
2022-09-13T11:14:16.167Z,25.40
2022-09-13T11:17:17.651Z,25.50
2022-09-13T11:19:47.922Z,25.60
2022-09-13T11:22:33.458Z,25.60
2022-09-13T11:25:22.757Z,25.70
2022-09-13T11:28:10.925Z,25.80
2022-09-13T11:31:04.577Z,25.80
2022-09-13T11:33:57.483Z,25.80
2022-09-13T11:37:03.151Z,25.90
2022-09-13T11:39:39.374Z,26.00
2022-09-13T11:42:19.369Z,26.10
2022-09-13T11:45:21.624Z,26.10
2022-09-13T11:48:27.356Z,26.10
2022-09-13T11:51:25.356Z,26.10
2022-09-13T11:54:04.153Z,26.10
2022-09-13T11:56:38.191Z,26.10
2022-09-13T11:59:38.270Z,26.10
2022-09-13T12:02:45.018Z,26.00
2022-09-13T12:05:23.919Z,26.00
2022-09-13T12:08:03.394Z,26.00
2022-09-13T12:10:39.509Z,26.00
2022-09-13T12:13:14.306Z,26.00
2022-09-13T12:15:44.829Z,26.10
2022-09-13T12:18:28.549Z,26.10
2022-09-13T12:21:20.506Z,26.20
2022-09-13T12:24:05.082Z,26.20
2022-09-13T12:26:38.688Z,26.20
2022-09-13T12:29:15.376Z,26.30
2022-09-13T12:31:42.855Z,26.40
2022-09-13T12:34:22.340Z,26.50
2022-09-13T12:37:14.307Z,26.50
2022-09-13T12:40:00.694Z,26.50
2022-09-13T12:43:08.090Z,26.50
2022-09-13T12:45:59.084Z,26.50
2022-09-13T12:48:42.026Z,26.50
2022-09-13T12:51:27.937Z,26.50
2022-09-13T12:53:54.863Z,26.50
2022-09-13T12:56:57.198Z,26.50
2022-09-13T12:59:36.271Z,26.50
2022-09-13T13:02:22.398Z,26.60
2022-09-13T13:04:57.257Z,26.60
2022-09-13T13:07:25.243Z,26.60
2022-09-13T13:09:55.054Z,26.70
2022-09-13T13:12:38.636Z,26.70
2022-09-13T13:15:29.207Z,26.80
2022-09-13T13:17:56.987Z,26.90
2022-09-13T13:20:42.889Z,26.90
2022-09-13T13:23:23.847Z,26.90
2022-09-13T13:26:08.919Z,26.90
2022-09-13T13:28:45.746Z,26.80
2022-09-13T13:31:25.104Z,26.80
2022-09-13T13:33:58.514Z,26.80
2022-09-13T13:36:34.199Z,26.80
2022-09-13T13:39:03.936Z,26.70
2022-09-13T13:41:33.996Z,26.60
2022-09-13T13:44:02.729Z,26.60
2022-09-13T13:46:32.893Z,26.50
2022-09-13T13:49:38.860Z,26.50
2022-09-13T13:52:13.752Z,26.40
2022-09-13T13:54:58.446Z,26.30
2022-09-13T13:57:39.087Z,26.20
2022-09-13T14:00:15.096Z,26.20
2022-09-13T14:02:53.556Z,26.10
2022-09-13T14:05:45.421Z,26.10
2022-09-13T14:08:32.732Z,26.00
2022-09-13T14:11:17.218Z,25.90
2022-09-13T14:14:03.314Z,25.90
2022-09-13T14:17:02.499Z,25.80
2022-09-13T14:19:39.967Z,25.80
2022-09-13T14:22:22.342Z,25.70
2022-09-13T14:24:55.522Z,25.70
2022-09-13T14:27:29.624Z,25.70
2022-09-13T14:30:03.573Z,25.60
2022-09-13T14:32:45.343Z,25.60
2022-09-13T14:35:44.973Z,25.60
2022-09-13T14:38:25.893Z,25.60
2022-09-13T14:40:58.877Z,25.60
2022-09-13T14:43:29.570Z,25.60
2022-09-13T14:46:16.654Z,25.50
2022-09-13T14:48:57.275Z,25.50
2022-09-13T14:51:42.136Z,25.50
2022-09-13T14:54:28.262Z,25.50
2022-09-13T14:57:00.079Z,25.50
2022-09-13T14:59:35.722Z,25.50
2022-09-13T15:02:17.010Z,25.50
2022-09-13T15:04:48.801Z,25.50
2022-09-13T15:07:38.028Z,25.50
2022-09-13T15:10:17.848Z,25.50
2022-09-13T15:13:11.106Z,25.40
2022-09-13T15:15:43.419Z,25.40
2022-09-13T15:18:26.175Z,25.40
2022-09-13T15:21:02.328Z,25.40
2022-09-13T15:23:36.553Z,25.30
2022-09-13T15:26:06.812Z,25.30
2022-09-13T15:28:56.947Z,25.30
2022-09-13T15:31:35.710Z,25.20
2022-09-13T15:34:17.992Z,25.20
2022-09-13T15:36:47.358Z,25.20
2022-09-13T15:39:22.636Z,25.20
2022-09-13T15:41:58.762Z,25.10
2022-09-13T15:44:27.535Z,25.10
2022-09-13T15:46:56.896Z,25.10
2022-09-13T15:49:27.410Z,25.10
2022-09-13T15:51:57.876Z,25.00
2022-09-13T15:54:37.485Z,25.00
2022-09-13T15:57:17.539Z,25.00
2022-09-13T15:59:44.815Z,25.00
2022-09-13T16:02:19.828Z,25.00
2022-09-13T16:04:47.518Z,25.00
2022-09-13T16:07:16.793Z,25.00
2022-09-13T16:09:44.960Z,25.00
2022-09-13T16:12:12.526Z,25.00
2022-09-13T16:14:39.797Z,25.00
2022-09-13T16:17:20.695Z,24.90
2022-09-13T16:19:48.098Z,24.90
2022-09-13T16:22:16.199Z,24.90
2022-09-13T16:24:43.301Z,24.90
2022-09-13T16:27:13.841Z,24.90
2022-09-13T16:29:41.512Z,24.90
2022-09-13T16:32:08.903Z,24.80
2022-09-13T16:34:36.147Z,24.80
2022-09-13T16:37:03.482Z,24.80
2022-09-13T16:39:31.185Z,24.80
2022-09-13T16:41:58.683Z,24.80
2022-09-13T16:44:25.845Z,24.80
2022-09-13T16:46:53.004Z,24.80
2022-09-13T16:49:20.138Z,24.70
2022-09-13T16:51:47.128Z,24.70
2022-09-13T16:54:14.342Z,24.70
2022-09-13T16:56:41.629Z,24.70
2022-09-13T16:59:09.285Z,24.70
2022-09-13T17:01:36.418Z,24.60
2022-09-13T17:04:03.987Z,24.60
2022-09-13T17:06:31.086Z,24.60
2022-09-13T17:09:01.848Z,24.60
2022-09-13T17:11:32.042Z,24.50
2022-09-13T17:14:00.804Z,24.50
2022-09-13T17:16:29.636Z,24.40
2022-09-13T17:18:59.289Z,24.40
2022-09-13T17:21:27.342Z,24.40
2022-09-13T17:23:54.864Z,24.30
2022-09-13T17:26:22.911Z,24.30
2022-09-13T17:28:51.274Z,24.30
2022-09-13T17:31:19.968Z,24.30
2022-09-13T17:33:47.201Z,24.20
2022-09-13T17:36:15.127Z,24.20
2022-09-13T17:38:42.375Z,24.10
2022-09-13T17:41:16.058Z,24.10
2022-09-13T17:43:43.869Z,24.10
2022-09-13T17:46:14.471Z,24.10
2022-09-13T17:48:42.332Z,24.00
2022-09-13T17:51:15.102Z,24.00
2022-09-13T17:53:54.194Z,24.00
2022-09-13T17:56:29.702Z,23.90
2022-09-13T17:59:06.820Z,23.90
2022-09-13T18:01:39.254Z,23.90
2022-09-13T18:04:07.885Z,23.80
2022-09-13T18:06:36.485Z,23.80
2022-09-13T18:09:03.816Z,23.80
2022-09-13T18:11:30.970Z,23.80
2022-09-13T18:13:58.272Z,23.70
2022-09-13T18:16:27.084Z,23.70
2022-09-13T18:18:54.471Z,23.60
2022-09-13T18:21:24.399Z,23.60
2022-09-13T18:23:53.440Z,23.60
2022-09-13T18:26:22.727Z,23.50
2022-09-13T18:28:56.003Z,23.50
2022-09-13T18:31:24.810Z,23.50
2022-09-13T18:34:08.348Z,23.40
2022-09-13T18:36:36.879Z,23.40
2022-09-13T18:39:05.821Z,23.40
2022-09-13T18:41:35.643Z,23.30
2022-09-13T18:44:05.047Z,23.30
2022-09-13T18:46:34.461Z,23.30
2022-09-13T18:49:02.258Z,23.20
2022-09-13T18:51:32.270Z,23.20
2022-09-13T18:54:07.802Z,23.20
2022-09-13T18:56:35.960Z,23.20
2022-09-13T18:59:05.856Z,23.10
2022-09-13T19:01:35.947Z,23.10
2022-09-13T19:04:07.870Z,23.10
2022-09-13T19:06:41.449Z,23.10
2022-09-13T19:09:10.860Z,23.00
2022-09-13T19:11:49.251Z,23.00
2022-09-13T19:14:20.299Z,22.90
2022-09-13T19:16:49.394Z,22.90
2022-09-13T19:19:16.868Z,22.90
2022-09-13T19:21:44.373Z,22.80
2022-09-13T19:24:17.810Z,22.80
2022-09-13T19:26:47.738Z,22.80
2022-09-13T19:29:16.980Z,22.70
2022-09-13T19:31:48.296Z,22.70
2022-09-13T19:34:17.692Z,22.60
2022-09-13T19:36:45.086Z,22.60
2022-09-13T19:39:12.751Z,22.60
2022-09-13T19:41:41.567Z,22.50
2022-09-13T19:44:10.501Z,22.50
2022-09-13T19:46:39.787Z,22.50
2022-09-13T19:49:11.956Z,22.40
2022-09-13T19:51:40.557Z,22.40
2022-09-13T19:54:10.888Z,22.30
2022-09-13T19:56:39.615Z,22.30
2022-09-13T19:59:08.613Z,22.20
2022-09-13T20:01:38.687Z,22.20
2022-09-13T20:04:15.579Z,22.20
2022-09-13T20:06:45.289Z,22.10
2022-09-13T20:09:14.450Z,22.10
2022-09-13T20:11:45.479Z,22.10
2022-09-13T20:14:15.058Z,22.10
2022-09-13T20:16:43.129Z,22.10
2022-09-13T20:22:08.088Z,22.10
2022-09-13T20:24:35.556Z,22.10
2022-09-13T20:27:02.695Z,22.00
2022-09-13T20:29:29.969Z,22.00
2022-09-13T20:31:57.204Z,22.00
2022-09-13T20:34:24.290Z,22.00
2022-09-13T20:36:51.395Z,21.90
2022-09-13T20:39:20.179Z,21.90
2022-09-13T20:41:50.279Z,21.90
2022-09-13T20:44:18.095Z,21.90
2022-09-13T20:46:45.535Z,21.90
2022-09-13T20:49:12.680Z,21.90
2022-09-13T20:51:40.280Z,21.90
2022-09-13T20:54:07.851Z,21.80
2022-09-13T20:56:36.271Z,21.80
2022-09-13T20:59:05.271Z,21.80
2022-09-13T21:01:34.512Z,21.80
2022-09-13T21:04:01.993Z,21.80
2022-09-13T21:06:31.591Z,21.70
2022-09-13T21:09:00.172Z,21.70
2022-09-13T21:11:37.409Z,21.70
2022-09-13T21:14:06.746Z,21.70
2022-09-13T21:16:37.638Z,21.70
2022-09-13T21:19:05.958Z,21.70
2022-09-13T21:21:36.322Z,21.70
2022-09-13T21:24:04.897Z,21.70
2022-09-13T21:26:32.971Z,21.70
2022-09-13T21:29:00.503Z,21.70
2022-09-13T21:31:31.934Z,21.70
2022-09-13T21:34:02.279Z,21.70
2022-09-13T21:36:31.519Z,21.70
2022-09-13T21:38:58.465Z,21.70
2022-09-13T21:41:27.095Z,21.70
2022-09-13T21:43:54.579Z,21.70
2022-09-13T21:46:28.397Z,21.70
2022-09-13T21:49:00.222Z,21.70
2022-09-13T21:51:30.399Z,21.70
2022-09-13T21:53:59.600Z,21.70
2022-09-13T21:56:29.306Z,21.70
2022-09-13T21:59:17.987Z,21.70
2022-09-13T22:01:48.859Z,21.70
2022-09-13T22:04:19.187Z,21.70
2022-09-13T22:06:49.145Z,21.70
2022-09-13T22:09:17.157Z,21.70
2022-09-13T22:11:46.797Z,21.70
2022-09-13T22:14:15.850Z,21.70
2022-09-13T22:16:44.485Z,21.70
2022-09-13T22:19:21.289Z,21.70
2022-09-13T22:21:50.529Z,21.70
2022-09-13T22:24:19.831Z,21.80
2022-09-13T22:26:48.612Z,21.80
2022-09-13T22:29:16.518Z,21.80
2022-09-13T22:31:45.643Z,21.80
2022-09-13T22:34:16.036Z,21.80
2022-09-13T22:36:43.109Z,21.80
2022-09-13T22:39:14.888Z,21.80
2022-09-13T22:41:42.494Z,21.80
2022-09-13T22:44:10.399Z,21.80
2022-09-13T22:46:40.502Z,21.80
2022-09-13T22:49:09.141Z,21.90
2022-09-13T22:51:36.263Z,21.90
2022-09-13T22:54:06.965Z,21.80
2022-09-13T22:56:36.037Z,21.80
2022-09-13T22:59:09.289Z,21.90
2022-09-13T23:01:38.029Z,21.90
2022-09-13T23:04:05.422Z,21.90
2022-09-13T23:06:32.875Z,21.90
2022-09-13T23:09:02.359Z,21.90
2022-09-13T23:11:32.976Z,21.90
2022-09-13T23:14:03.366Z,21.90
2022-09-13T23:16:36.940Z,21.90
2022-09-13T23:19:04.465Z,21.90
2022-09-13T23:21:35.359Z,21.90
2022-09-13T23:24:04.354Z,21.90
2022-09-13T23:26:31.562Z,21.90
2022-09-13T23:29:00.933Z,21.90
2022-09-13T23:31:33.970Z,21.90
2022-09-13T23:34:06.421Z,21.90
2022-09-13T23:36:36.226Z,21.90
2022-09-13T23:39:06.775Z,21.90
2022-09-13T23:41:34.864Z,21.90
2022-09-13T23:44:02.697Z,21.90
2022-09-13T23:46:29.964Z,21.90
2022-09-13T23:48:57.220Z,21.80
2022-09-13T23:51:26.097Z,21.80
2022-09-13T23:53:57.981Z,21.80
2022-09-13T23:56:27.038Z,21.80
2022-09-13T23:58:57.103Z,21.80
